Time;durP1;ratioP1;P1;durP2;ratioP2;P2;SDS_P1;SDS_P2;PMS_P1;PMS_P2;Temp;Humidity;BMP_temperature;BMP_pressure;BME280_temperature;BME280_humidity;BME280_pressure;Samples;Min_cycle;Max_cycle;Signal;HPM_P1;HPM_P2
2021/12/03 00:02:15;;;;;;;;;;;4.70;97.20;;;;;;5008385;28;20178;-72
2021/12/03 00:04:42;;;;;;;9.48;5.70;;;4.70;97.10;;;;;;5003678;28;19948;-74
2021/12/03 00:07:09;;;;;;;10.07;5.65;;;4.60;96.70;;;;;;5007519;28;20033;-72
2021/12/03 00:09:36;;;;;;;10.10;5.72;;;4.60;96.60;;;;;;5019780;28;20161;-72
2021/12/03 00:12:04;;;;;;;9.75;5.10;;;4.70;96.10;;;;;;5010139;28;20104;-73
2021/12/03 00:14:33;;;;;;;7.55;4.80;;;4.70;95.80;;;;;;5000769;28;20069;-73
2021/12/03 00:16:58;;;;;;;7.75;4.53;;;4.70;95.50;;;;;;5022097;28;20033;-72
2021/12/03 00:19:24;;;;;;;8.93;4.63;;;4.70;94.80;;;;;;5003360;28;20478;-73
2021/12/03 00:21:51;;;;;;;5.83;4.10;;;4.70;94.40;;;;;;5001662;28;20025;-73
2021/12/03 00:24:16;;;;;;;6.32;3.90;;;4.60;93.90;;;;;;5012638;28;20107;-73
2021/12/03 00:26:43;;;;;;;5.93;3.50;;;4.60;93.40;;;;;;5000757;28;20398;-73
2021/12/03 00:29:12;;;;;;;7.18;3.33;;;4.60;93.50;;;;;;5003950;28;20021;-73
2021/12/03 00:31:39;;;;;;;8.00;4.18;;;4.60;93.20;;;;;;5003261;28;20025;-73
2021/12/03 00:34:07;;;;;;;6.70;3.90;;;4.60;93.10;;;;;;5005125;28;20013;-73
2021/12/03 00:36:33;;;;;;;6.60;3.42;;;4.60;93.10;;;;;;4998232;28;20025;-73
2021/12/03 00:39:01;;;;;;;8.20;3.73;;;4.60;92.80;;;;;;5004194;28;20488;-73
2021/12/03 00:41:32;;;;;;;9.05;4.00;;;4.60;93.00;;;;;;5005435;28;20044;-72
2021/12/03 00:43:59;;;;;;;8.68;3.75;;;4.60;93.10;;;;;;5006320;28;20220;-72
2021/12/03 00:46:25;;;;;;;8.07;3.88;;;4.50;93.30;;;;;;5002409;28;20018;-73
2021/12/03 00:48:53;;;;;;;7.90;4.30;;;4.50;93.20;;;;;;5006752;28;20034;-73
2021/12/03 00:51:23;;;;;;;8.02;3.50;;;4.40;93.40;;;;;;5000645;28;20034;-72
2021/12/03 00:53:51;;;;;;;7.05;3.78;;;4.40;93.30;;;;;;5003241;28;20068;-73
2021/12/03 00:56:19;;;;;;;5.95;3.58;;;4.40;93.20;;;;;;5010381;28;20037;-73
2021/12/03 00:58:45;;;;;;;7.80;4.05;;;4.40;93.50;;;;;;5010458;28;20022;-73
2021/12/03 01:01:11;;;;;;;5.32;3.50;;;4.30;93.40;;;;;;5007919;28;20021;-73
2021/12/03 01:03:39;;;;;;;7.97;4.03;;;4.30;93.60;;;;;;4995532;28;20018;-73
2021/12/03 01:06:05;;;;;;;7.78;4.32;;;4.30;93.10;;;;;;5006918;28;20374;-73
2021/12/03 01:08:35;;;;;;;6.07;4.40;;;4.30;93.40;;;;;;5003305;28;20091;-73
2021/12/03 01:11:02;;;;;;;6.88;3.78;;;4.30;93.30;;;;;;5004224;28;20303;-72
2021/12/03 01:13:28;;;;;;;10.30;4.28;;;4.30;93.60;;;;;;4999768;28;20045;-72
2021/12/03 01:15:54;;;;;;;6.97;3.90;;;4.30;93.70;;;;;;5003648;28;20648;-73
2021/12/03 01:18:20;;;;;;;10.83;4.27;;;4.40;93.70;;;;;;4997058;28;20224;-73
2021/12/03 01:20:46;;;;;;;5.67;3.23;;;4.30;93.90;;;;;;5018175;28;20029;-73
2021/12/03 01:23:12;;;;;;;9.27;3.92;;;4.30;93.70;;;;;;4999620;28;20041;-72
2021/12/03 01:25:44;;;;;;;4.60;3.40;;;4.30;93.50;;;;;;4996516;28;20475;-73
2021/12/03 01:28:12;;;;;;;8.18;3.97;;;4.30;93.50;;;;;;5003469;28;20021;-73
2021/12/03 01:30:40;;;;;;;5.72;3.65;;;4.30;93.50;;;;;;4995789;28;20510;-72
2021/12/03 01:33:07;;;;;;;7.25;3.78;;;4.30;93.40;;;;;;5002198;28;20069;-73
2021/12/03 01:35:36;;;;;;;6.38;3.17;;;4.30;93.40;;;;;;5001347;28;20010;-73
2021/12/03 01:38:03;;;;;;;7.05;3.80;;;4.40;93.30;;;;;;5013174;28;20036;-73
2021/12/03 01:40:33;;;;;;;6.55;3.97;;;4.40;93.40;;;;;;5005734;28;20024;-73
2021/12/03 01:43:00;;;;;;;9.07;3.80;;;4.30;93.40;;;;;;5007633;28;20032;-73
2021/12/03 01:45:29;;;;;;;8.57;3.70;;;4.40;93.70;;;;;;5001376;28;20029;-73
2021/12/03 01:47:56;;;;;;;6.25;4.13;;;4.40;94.20;;;;;;5009292;28;20029;-73
2021/12/03 01:50:33;;;;;;;7.85;3.60;;;4.40;94.20;;;;;;5020809;28;20076;-73
2021/12/03 01:52:59;;;;;;;6.57;4.07;;;4.40;94.30;;;;;;4996903;28;20109;-72
2021/12/03 01:55:25;;;;;;;7.90;3.97;;;4.40;94.20;;;;;;4996046;28;20595;-73
2021/12/03 01:57:51;;;;;;;7.60;4.47;;;4.40;94.40;;;;;;5019596;28;20081;-73
2021/12/03 02:00:21;;;;;;;6.30;4.32;;;4.40;94.20;;;;;;4999553;28;20042;-73
2021/12/03 02:02:48;;;;;;;6.80;3.75;;;4.40;94.00;;;;;;5005083;28;20573;-73
2021/12/03 02:05:14;;;;;;;7.53;4.40;;;4.40;93.90;;;;;;5016364;28;20060;-72
2021/12/03 02:07:40;;;;;;;9.98;4.60;;;4.30;94.40;;;;;;5002397;28;20029;-73
2021/12/03 02:10:07;;;;;;;8.00;4.53;;;4.30;94.30;;;;;;5001028;28;20022;-73
2021/12/03 02:12:34;;;;;;;8.65;3.95;;;4.30;94.50;;;;;;4997368;28;20030;-72
2021/12/03 02:15:01;;;;;;;;;;;4.30;94.60;;;;;;5003261;28;20017;-73
2021/12/03 02:17:28;;;;;;;6.35;4.32;;;4.30;94.80;;;;;;4999651;28;19928;-73
2021/12/03 02:19:54;;;;;;;7.57;3.97;;;4.30;94.80;;;;;;5003231;28;20107;-72
2021/12/03 02:22:19;;;;;;;6.45;3.55;;;4.20;93.40;;;;;;5001862;28;20791;-73
2021/12/03 02:24:46;;;;;;;9.03;4.13;;;4.30;93.80;;;;;;4996968;28;20125;-73
2021/12/03 02:27:11;;;;;;;9.65;4.53;;;4.30;93.60;;;;;;5007216;28;20051;-73
2021/12/03 02:29:37;;;;;;;6.60;3.00;;;4.20;92.90;;;;;;4998802;28;20105;-73
2021/12/03 02:32:03;;;;;;;5.07;2.70;;;4.20;91.10;;;;;;5011130;28;20101;-72
2021/12/03 02:34:31;;;;;;;6.85;3.50;;;4.20;90.30;;;;;;4997609;28;20150;-73
2021/12/03 02:36:58;;;;;;;4.82;2.88;;;4.20;90.70;;;;;;5015650;28;20084;-73
2021/12/03 02:39:24;;;;;;;;;;;4.10;90.50;;;;;;5003256;28;20108;-72
2021/12/03 02:41:49;;;;;;;6.30;2.60;;;4.10;90.70;;;;;;5007674;28;20560;-72
2021/12/03 02:44:16;;;;;;;4.97;3.03;;;4.10;91.10;;;;;;5020111;28;20156;-72
2021/12/03 02:46:42;;;;;;;8.50;3.78;;;4.10;90.80;;;;;;5002841;28;20115;-73
2021/12/03 02:49:13;;;;;;;5.87;3.37;;;4.10;90.70;;;;;;5024600;28;20164;-72
2021/12/03 02:51:39;;;;;;;5.15;2.65;;;4.10;90.60;;;;;;5009368;28;20009;-73
2021/12/03 02:54:07;;;;;;;6.83;3.10;;;4.10;91.00;;;;;;5005897;28;20013;-73
2021/12/03 02:56:34;;;;;;;8.75;3.22;;;4.10;91.10;;;;;;5008872;28;20017;-73
2021/12/03 02:59:00;;;;;;;6.03;3.20;;;4.10;90.90;;;;;;5009980;28;20483;-73
2021/12/03 03:01:27;;;;;;;5.30;3.00;;;4.10;90.40;;;;;;5013169;28;20072;-73
2021/12/03 03:03:52;;;;;;;;;;;4.00;89.50;;;;;;5011199;28;20060;-73
2021/12/03 03:06:20;;;;;;;6.85;2.97;;;4.00;88.50;;;;;;5008299;28;20008;-73
2021/12/03 03:08:49;;;;;;;3.03;2.72;;;4.00;89.20;;;;;;5011577;28;20099;-73
2021/12/03 03:11:22;;;;;;;6.70;2.83;;;4.00;89.10;;;;;;5008844;28;20028;-73
2021/12/03 03:13:49;;;;;;;6.78;2.80;;;4.00;89.10;;;;;;5002624;28;20128;-73
2021/12/03 03:16:17;;;;;;;4.63;2.63;;;4.00;88.90;;;;;;5008166;28;20095;-73
2021/12/03 03:18:44;;;;;;;3.42;2.33;;;4.00;89.30;;;;;;5024087;28;20474;-73
2021/12/03 03:21:14;;;;;;;5.55;2.70;;;4.00;89.80;;;;;;5011655;28;20021;-73
2021/12/03 03:23:40;;;;;;;4.63;2.13;;;4.00;89.70;;;;;;5002169;28;20867;-73
2021/12/03 03:26:07;;;;;;;5.00;2.58;;;4.00;89.40;;;;;;5008229;28;20491;-73
2021/12/03 03:28:34;;;;;;;6.03;2.78;;;3.90;89.40;;;;;;5027470;28;20488;-72
2021/12/03 03:31:03;;;;;;;4.35;2.63;;;3.90;89.50;;;;;;5023126;28;20034;-72
2021/12/03 03:33:32;;;;;;;5.85;2.35;;;4.00;89.20;;;;;;5003914;28;20021;-73
2021/12/03 03:35:58;;;;;;;5.10;2.63;;;3.90;89.50;;;;;;5007109;28;20014;-73
2021/12/03 03:38:23;;;;;;;3.38;2.30;;;3.90;90.10;;;;;;4999671;28;20362;-73
2021/12/03 03:40:51;;;;;;;4.90;2.77;;;3.90;90.20;;;;;;5008877;28;20037;-72
2021/12/03 03:43:17;;;;;;;6.07;2.60;;;3.90;90.50;;;;;;5009577;28;20112;-73
2021/12/03 03:45:43;;;;;;;5.68;3.17;;;3.90;90.90;;;;;;5007760;28;20033;-72
2021/12/03 03:48:12;;;;;;;6.30;3.08;;;3.90;91.30;;;;;;5003557;28;20033;-73
2021/12/03 03:50:40;;;;;;;5.28;2.60;;;3.90;91.70;;;;;;5001516;28;20045;-72
2021/12/03 03:53:10;;;;;;;7.40;2.72;;;3.90;91.80;;;;;;5006323;28;20160;-72
2021/12/03 03:55:36;;;;;;;5.00;3.20;;;3.90;92.10;;;;;;5002474;28;20026;-73
2021/12/03 03:58:02;;;;;;;6.73;3.20;;;3.90;91.90;;;;;;5011028;28;20025;-72
2021/12/03 04:00:30;;;;;;;;;;;3.80;92.00;;;;;;5003822;28;20467;-73
2021/12/03 04:02:56;;;;;;;6.00;3.30;;;3.80;91.90;;;;;;5005762;28;19909;-73
2021/12/03 04:05:22;;;;;;;3.97;2.70;;;3.80;91.70;;;;;;5011708;28;20257;-72
2021/12/03 04:07:47;;;;;;;9.53;2.73;;;3.70;91.80;;;;;;5023475;28;20083;-73
2021/12/03 04:10:14;;;;;;;4.80;2.77;;;3.70;91.80;;;;;;5008056;28;20037;-72
2021/12/03 04:12:41;;;;;;;6.50;2.88;;;3.70;92.00;;;;;;5002784;28;20053;-72
2021/12/03 04:15:10;;;;;;;5.40;2.55;;;3.70;91.50;;;;;;5003239;28;20101;-73
2021/12/03 04:17:36;;;;;;;6.90;2.78;;;3.70;91.50;;;;;;5014747;28;20018;-73
2021/12/03 04:20:06;;;;;;;4.70;2.60;;;3.70;91.20;;;;;;5018806;28;20021;-72
2021/12/03 04:22:34;;;;;;;7.00;2.60;;;3.70;91.10;;;;;;4998642;28;20087;-73
2021/12/03 04:25:03;;;;;;;4.22;2.33;;;3.60;91.20;;;;;;5006411;28;20018;-72
2021/12/03 04:27:34;;;;;;;5.78;2.58;;;3.50;91.00;;;;;;5008409;28;20657;-73
2021/12/03 04:30:00;;;;;;;4.70;2.30;;;3.50;90.80;;;;;;5007594;28;20740;-73
2021/12/03 04:32:27;;;;;;;3.45;2.15;;;3.40;90.70;;;;;;5000673;28;20026;-73
2021/12/03 04:34:54;;;;;;;3.92;2.33;;;3.40;90.70;;;;;;5024714;28;20029;-73
2021/12/03 04:37:19;;;;;;;;;;;3.40;90.60;;;;;;5004176;28;20024;-73
2021/12/03 04:39:46;;;;;;;5.72;2.67;;;3.30;90.60;;;;;;5002278;28;19999;-73
2021/12/03 04:42:12;;;;;;;3.85;2.25;;;3.30;90.70;;;;;;5008306;28;20089;-73
2021/12/03 04:44:39;;;;;;;4.10;2.33;;;3.20;90.70;;;;;;4996967;28;20022;-72
2021/12/03 04:47:04;;;;;;;;;;;3.10;90.90;;;;;;5002492;28;20049;-72
2021/12/03 04:49:30;;;;;;;4.10;2.00;;;3.10;91.10;;;;;;5012451;28;19964;-73
2021/12/03 04:51:57;;;;;;;7.37;2.33;;;3.00;91.30;;;;;;5005431;28;20018;-72
2021/12/03 04:54:25;;;;;;;4.13;2.13;;;3.00;91.80;;;;;;4999643;28;20018;-72
2021/12/03 04:56:52;;;;;;;5.80;2.30;;;3.00;91.50;;;;;;5011070;28;20042;-72
2021/12/03 04:59:17;;;;;;;5.20;2.00;;;3.00;91.50;;;;;;5008139;28;20029;-72
2021/12/03 05:01:45;;;;;;;3.07;2.07;;;2.90;91.80;;;;;;4998930;28;20025;-73
2021/12/03 05:04:12;;;;;;;5.53;2.42;;;2.90;91.80;;;;;;5006068;28;20028;-74
2021/12/03 05:06:53;;;;;;;4.97;2.33;;;2.90;92.00;;;;;;5000558;28;20026;-73
2021/12/03 05:09:21;;;;;;;3.33;2.00;;;2.90;92.10;;;;;;5001743;28;20065;-73
2021/12/03 05:11:47;;;;;;;8.23;3.08;;;2.80;92.20;;;;;;5017314;28;20474;-73
2021/12/03 05:14:14;;;;;;;4.75;2.35;;;2.80;92.30;;;;;;5009174;28;20088;-72
2021/12/03 05:16:40;;;;;;;6.40;2.33;;;2.70;92.60;;;;;;5003669;28;20025;-73
2021/12/03 05:19:05;;;;;;;3.87;2.13;;;2.80;92.70;;;;;;5005495;28;20024;-73
2021/12/03 05:21:31;;;;;;;4.03;2.00;;;2.80;92.80;;;;;;5004366;28;20083;-73
2021/12/03 05:23:59;;;;;;;8.57;2.40;;;2.80;92.90;;;;;;5021013;28;20314;-72
2021/12/03 05:26:25;;;;;;;6.50;2.67;;;2.80;93.00;;;;;;5005708;28;20521;-72
2021/12/03 05:28:51;;;;;;;3.20;2.08;;;2.80;93.20;;;;;;5009425;28;20108;-72
2021/12/03 05:31:18;;;;;;;3.33;2.40;;;2.80;93.40;;;;;;5001401;28;20029;-72
2021/12/03 05:33:45;;;;;;;6.07;2.70;;;2.80;93.40;;;;;;5000895;28;20025;-72
2021/12/03 05:36:11;;;;;;;4.38;2.42;;;2.80;93.50;;;;;;5005056;28;20026;-73
2021/12/03 05:38:38;;;;;;;6.00;2.90;;;2.80;93.50;;;;;;5001694;28;20021;-73
2021/12/03 05:41:04;;;;;;;7.65;3.05;;;2.80;93.60;;;;;;5018519;28;20018;-73
2021/12/03 05:43:31;;;;;;;5.07;2.70;;;2.80;93.50;;;;;;5005171;28;20517;-73
2021/12/03 05:45:58;;;;;;;7.00;3.15;;;2.80;93.50;;;;;;5003443;28;20173;-73
2021/12/03 05:48:25;;;;;;;;;;;2.80;93.50;;;;;;5011860;28;20032;-73
2021/12/03 05:50:51;;;;;;;5.25;2.90;;;2.90;93.60;;;;;;5002385;28;19927;-72
2021/12/03 05:53:17;;;;;;;7.85;3.22;;;2.90;93.50;;;;;;5002862;28;20036;-73
2021/12/03 05:55:43;;;;;;;7.83;3.50;;;3.00;93.40;;;;;;5005112;28;20021;-72
2021/12/03 05:58:10;;;;;;;4.17;2.40;;;3.00;93.30;;;;;;5007040;28;20140;-73
2021/12/03 06:00:39;;;;;;;6.30;2.80;;;3.10;93.20;;;;;;4998653;28;20746;-73
2021/12/03 06:03:05;;;;;;;6.85;3.22;;;3.10;93.10;;;;;;5005243;28;20041;-73
2021/12/03 06:05:32;;;;;;;5.10;2.90;;;3.10;93.10;;;;;;5001356;28;20164;-73
2021/12/03 06:07:58;;;;;;;;;;;3.10;93.10;;;;;;5005543;28;20652;-72
2021/12/03 06:10:30;;;;;;;6.32;2.88;;;3.10;93.20;;;;;;5011183;28;19919;-73
2021/12/03 06:12:57;;;;;;;5.18;3.10;;;3.00;93.30;;;;;;5023473;28;20045;-73
2021/12/03 06:15:22;;;;;;;4.65;2.90;;;3.00;93.40;;;;;;5009760;28;20022;-74
2021/12/03 06:17:49;;;;;;;6.53;3.10;;;3.00;93.50;;;;;;5007683;28;20085;-73
2021/12/03 06:20:16;;;;;;;3.90;2.53;;;3.00;93.70;;;;;;5004016;28;20105;-73
2021/12/03 06:22:43;;;;;;;6.25;3.30;;;3.00;93.70;;;;;;5004486;28;20031;-77
2021/12/03 06:25:12;;;;;;;8.68;3.42;;;3.00;94.80;;;;;;5019491;28;20147;-75
2021/12/03 06:27:41;;;;;;;6.40;3.55;;;3.20;94.70;;;;;;5008685;28;20435;-76
2021/12/03 06:30:13;;;;;;;7.20;3.78;;;3.40;94.50;;;;;;5000311;28;20026;-72
2021/12/03 06:32:39;;;;;;;6.25;2.83;;;3.60;94.30;;;;;;4996233;28;20414;-72
2021/12/03 06:35:07;;;;;;;7.05;3.70;;;3.70;92.60;;;;;;5012557;28;20026;-71
2021/12/03 06:37:33;;;;;;;5.85;3.60;;;3.70;92.50;;;;;;5004502;28;20518;-72
2021/12/03 06:40:00;;;;;;;9.07;3.27;;;3.60;92.30;;;;;;5005988;28;20030;-71
2021/12/03 06:42:25;;;;;;;7.88;3.88;;;3.60;92.50;;;;;;5001073;28;20547;-72
2021/12/03 06:44:51;;;;;;;7.03;3.63;;;3.60;92.60;;;;;;5004885;28;20036;-71
2021/12/03 06:47:17;;;;;;;5.87;3.33;;;3.50;92.60;;;;;;5003010;28;20029;-71
2021/12/03 06:49:43;;;;;;;5.57;3.77;;;3.40;92.50;;;;;;4999619;28;20113;-71
2021/12/03 06:52:12;;;;;;;6.43;3.37;;;3.30;92.50;;;;;;4997590;28;20018;-71
2021/12/03 06:54:38;;;;;;;6.15;3.60;;;3.20;92.60;;;;;;4998696;28;20140;-73
2021/12/03 06:57:07;;;;;;;8.50;3.00;;;3.20;92.70;;;;;;5016666;28;20112;-71
2021/12/03 06:59:33;;;;;;;5.82;3.58;;;3.20;92.70;;;;;;4999508;28;20347;-71
2021/12/03 07:01:59;;;;;;;6.22;3.92;;;3.20;92.40;;;;;;5017713;28;20119;-72
2021/12/03 07:04:25;;;;;;;5.30;3.80;;;3.20;92.60;;;;;;4999313;28;20058;-72
2021/12/03 07:06:51;;;;;;;4.75;3.28;;;3.30;92.60;;;;;;4995605;28;20030;-71
2021/12/03 07:09:17;;;;;;;8.10;3.63;;;3.40;92.30;;;;;;5005136;28;20091;-72
2021/12/03 07:11:43;;;;;;;5.73;3.10;;;3.40;92.00;;;;;;5002559;28;20763;-72
2021/12/03 07:14:09;;;;;;;5.20;3.15;;;3.40;91.80;;;;;;5019396;28;20101;-71
2021/12/03 07:16:36;;;;;;;6.28;3.40;;;3.40;91.90;;;;;;4995783;28;20033;-72
2021/12/03 07:19:03;;;;;;;6.88;3.95;;;3.40;92.00;;;;;;5005128;28;20463;-71
2021/12/03 07:21:29;;;;;;;5.80;3.38;;;3.50;91.90;;;;;;5002021;28;20441;-72
2021/12/03 07:23:55;;;;;;;6.33;3.30;;;3.50;92.00;;;;;;5002676;28;20022;-71
2021/12/03 07:26:23;;;;;;;10.17;3.80;;;3.50;92.10;;;;;;5006545;28;20495;-72
2021/12/03 07:28:49;;;;;;;5.10;3.38;;;3.50;91.90;;;;;;5005734;28;20013;-71
2021/12/03 07:31:15;;;;;;;3.83;3.33;;;3.60;91.80;;;;;;5002037;28;20036;-71
2021/12/03 07:33:41;;;;;;;5.45;3.35;;;3.60;91.90;;;;;;4998739;28;20033;-71
2021/12/03 07:36:07;;;;;;;7.73;3.70;;;3.60;91.80;;;;;;5006698;28;20378;-73
2021/12/03 07:38:34;;;;;;;6.23;3.17;;;3.70;91.80;;;;;;5006097;28;20027;-72
2021/12/03 07:41:02;;;;;;;7.40;3.70;;;3.80;91.80;;;;;;5010240;28;20085;-72
2021/12/03 07:43:29;;;;;;;5.03;3.85;;;3.80;91.70;;;;;;5005501;28;20026;-72
2021/12/03 07:45:54;;;;;;;6.50;3.38;;;3.80;91.60;;;;;;5022132;28;20021;-71
2021/12/03 07:48:22;;;;;;;7.47;3.80;;;4.00;91.50;;;;;;5007030;28;20091;-71
2021/12/03 07:50:53;;;;;;;4.15;3.33;;;4.10;91.30;;;;;;5005262;28;20491;-72
2021/12/03 07:53:19;;;;;;;6.25;3.33;;;4.10;91.10;;;;;;5011778;28;20071;-71
2021/12/03 07:55:47;;;;;;;5.97;3.80;;;4.20;90.90;;;;;;5014349;28;20029;-72
2021/12/03 07:58:13;;;;;;;4.70;3.35;;;4.20;90.80;;;;;;5009279;28;20022;-72
2021/12/03 08:00:39;;;;;;;6.20;3.55;;;4.40;90.70;;;;;;5021227;28;20021;-72
2021/12/03 08:03:05;;;;;;;5.50;3.70;;;4.40;90.70;;;;;;5008544;28;20021;-71
2021/12/03 08:05:31;;;;;;;6.73;4.27;;;4.40;90.90;;;;;;4999649;28;20041;-72
2021/12/03 08:07:58;;;;;;;7.80;4.37;;;4.50;90.90;;;;;;5001160;28;20060;-72
2021/12/03 08:10:24;;;;;;;8.20;4.55;;;4.70;90.90;;;;;;5005222;28;20101;-72
2021/12/03 08:12:50;;;;;;;6.70;4.63;;;4.90;91.20;;;;;;5001591;28;20021;-72
2021/12/03 08:15:17;;;;;;;7.40;4.50;;;5.20;90.30;;;;;;5007040;28;20037;-71
2021/12/03 08:17:43;;;;;;;;;;;5.40;90.30;;;;;;5003416;28;20034;-72
2021/12/03 08:20:09;;;;;;;6.15;4.78;;;5.50;90.00;;;;;;5007983;28;19954;-71
2021/12/03 08:22:36;;;;;;;7.57;4.47;;;5.70;89.50;;;;;;5004729;28;20027;-72
2021/12/03 08:25:03;;;;;;;7.43;4.70;;;6.20;87.60;;;;;;5004804;28;20022;-71
2021/12/03 08:27:29;;;;;;;6.22;4.15;;;6.30;85.70;;;;;;5011640;28;20091;-72
2021/12/03 08:29:55;;;;;;;;;;;6.20;86.60;;;;;;5003848;28;20716;-72
2021/12/03 08:32:21;;;;;;;6.63;4.28;;;6.00;86.80;;;;;;5009525;28;19913;-72
2021/12/03 08:34:46;;;;;;;7.27;4.30;;;6.20;87.30;;;;;;5001953;28;20042;-72
2021/12/03 08:37:12;;;;;;;6.07;4.30;;;6.80;85.50;;;;;;5003245;28;20010;-72
2021/12/03 08:39:38;;;;;;;8.13;3.97;;;7.10;83.60;;;;;;5001348;28;20152;-72
2021/12/03 08:42:06;;;;;;;5.78;4.28;;;7.10;82.80;;;;;;5006780;28;20028;-72
2021/12/03 08:44:32;;;;;;;6.03;3.88;;;7.00;82.90;;;;;;4999565;28;20017;-72
2021/12/03 08:47:02;;;;;;;6.17;3.77;;;6.80;83.50;;;;;;5011323;28;20050;-72
2021/12/03 08:57:15;;;;;;;5.53;3.88;;;6.10;85.90;;;;;;5007956;28;20029;-72
2021/12/03 08:59:41;;;;;;;4.70;3.20;;;5.90;86.60;;;;;;5007782;28;20040;-72
2021/12/03 09:02:07;;;;;;;6.00;4.32;;;5.90;87.00;;;;;;5011349;28;20033;-71
2021/12/03 09:04:33;;;;;;;6.38;4.22;;;5.80;87.40;;;;;;5001047;28;20033;-72
2021/12/03 09:07:00;;;;;;;5.90;3.63;;;5.80;87.30;;;;;;5007138;28;20766;-71
2021/12/03 09:09:27;;;;;;;4.20;3.10;;;5.70;86.40;;;;;;5010013;28;20029;-71
2021/12/03 09:11:54;;;;;;;5.03;3.45;;;5.70;86.40;;;;;;4996068;28;20032;-72
2021/12/03 09:19:55;;;;;;;5.50;3.65;;;5.40;87.40;;;;;;5004190;28;20180;-72
2021/12/03 09:24:57;;;;;;;5.47;3.53;;;6.00;86.30;;;;;;5004414;28;20032;-72
2021/12/03 09:27:23;;;;;;;4.87;3.10;;;6.00;85.00;;;;;;5009225;28;20021;-72
2021/12/03 09:29:53;;;;;;;5.77;2.87;;;6.00;84.90;;;;;;5000643;28;20026;-72
2021/12/03 09:32:22;;;;;;;4.60;3.00;;;6.10;83.80;;;;;;5001952;28;20056;-72
2021/12/03 09:34:49;;;;;;;5.20;3.17;;;6.10;83.40;;;;;;5000078;28;20048;-72
2021/12/03 09:37:16;;;;;;;2.97;2.55;;;6.30;83.70;;;;;;5021379;28;20036;-72
2021/12/03 09:39:45;;;;;;;3.50;2.50;;;6.50;82.40;;;;;;5008696;28;20104;-73
2021/12/03 09:42:13;;;;;;;3.80;2.65;;;6.60;81.00;;;;;;5001301;28;20023;-72
2021/12/03 09:44:44;;;;;;;3.22;2.30;;;6.50;81.10;;;;;;5003695;28;20478;-72
2021/12/03 09:47:13;;;;;;;5.55;2.40;;;6.70;80.90;;;;;;5010527;28;20449;-72
2021/12/03 09:49:41;;;;;;;3.63;2.22;;;7.40;79.50;;;;;;5001893;28;20112;-72
2021/12/03 09:52:21;;;;;;;4.55;2.92;;;8.30;77.20;;;;;;5021562;28;20023;-73
2021/12/03 09:54:52;;;;;;;3.60;2.95;;;9.40;73.00;;;;;;4998601;28;20013;-73
2021/12/03 10:11:17;;;;;;;5.03;3.80;;;14.00;53.30;;;;;;5010870;28;20576;-74
2021/12/03 10:16:25;;;;;;;5.70;4.45;;;15.20;49.10;;;;;;5004953;28;20033;-73
2021/12/03 10:18:59;;;;;;;6.50;3.97;;;15.90;45.40;;;;;;5000712;28;20037;-73
2021/12/03 10:22:09;;;;;;;6.20;4.30;;;16.20;44.30;;;;;;5011414;28;20475;-73
2021/12/03 10:30:16;;;;;;;5.97;4.90;;;15.20;45.40;;;;;;5002688;28;20029;-73
2021/12/03 10:32:49;;;;;;;6.63;4.60;;;14.90;45.60;;;;;;5002929;28;20049;-73
2021/12/03 10:41:09;;;;;;;6.85;4.85;;;14.20;47.90;;;;;;5006754;28;20022;-73
2021/12/03 10:49:17;;;;;;;7.60;5.45;;;12.90;50.60;;;;;;5007040;28;20044;-73
2021/12/03 11:03:36;;;;;;;6.53;4.18;;;11.40;55.90;;;;;;5005575;28;20036;-72
2021/12/03 11:06:38;;;;;;;6.68;4.40;;;11.60;56.10;;;;;;5000952;28;20812;-73
2021/12/03 11:39:30;;;;;;;5.07;3.70;;;8.70;67.30;;;;;;5002446;28;20038;-73
2021/12/03 11:42:30;;;;;;;6.40;3.70;;;9.00;66.60;;;;;;5008159;28;20075;-72
2021/12/03 11:48:30;;;;;;;5.32;3.50;;;9.50;63.00;;;;;;5007019;28;20099;-72
2021/12/03 12:44:05;;;;;;;6.20;3.73;;;6.30;77.50;;;;;;5003350;28;20375;-72
2021/12/03 14:00:04;;;;;;;6.47;3.70;;;5.60;79.70;;;;;;5012020;28;20072;-72
2021/12/03 14:30:59;;;;;;;6.55;3.08;;;4.90;82.50;;;;;;5009316;28;20470;-71
2021/12/03 14:37:35;;;;;;;5.13;3.20;;;4.70;82.70;;;;;;5002723;28;20044;-71
2021/12/03 14:43:23;;;;;;;5.75;3.35;;;4.70;82.60;;;;;;5004569;28;20028;-71
2021/12/03 14:46:17;;;;;;;5.78;3.72;;;4.60;82.80;;;;;;5016742;28;20694;-72
2021/12/03 14:49:09;;;;;;;4.50;2.75;;;4.60;82.90;;;;;;5001257;28;20014;-71
2021/12/03 14:54:27;;;;;;;6.00;3.63;;;4.60;82.40;;;;;;5007751;28;20091;-71
2021/12/03 14:57:57;;;;;;;4.25;2.92;;;4.50;82.50;;;;;;5006839;28;20037;-71
2021/12/03 15:00:16;;;;;;;7.50;3.47;;;4.50;83.20;;;;;;5002638;28;20365;-72
2021/12/03 15:08:15;;;;;;;4.40;2.83;;;4.30;82.80;;;;;;5013788;28;20191;-71
2021/12/03 15:11:19;;;;;;;4.50;3.10;;;4.30;83.10;;;;;;5028249;28;20053;-72
2021/12/03 15:22:10;;;;;;;5.22;2.85;;;4.20;83.70;;;;;;5007259;28;20079;-72
2021/12/03 15:24:47;;;;;;;4.47;2.72;;;4.10;83.90;;;;;;5024248;28;20091;-71
2021/12/03 15:32:20;;;;;;;5.23;2.73;;;3.90;85.20;;;;;;5001826;28;20096;-71
2021/12/03 16:04:31;;;;;;;4.55;2.88;;;3.00;90.20;;;;;;5006757;28;20033;-71
2021/12/03 16:09:46;;;;;;;5.10;2.88;;;2.90;90.50;;;;;;5007426;28;20641;-71
2021/12/03 16:12:28;;;;;;;5.72;3.30;;;2.90;90.70;;;;;;5003024;28;20029;-72
2021/12/03 16:20:38;;;;;;;6.33;3.70;;;2.90;91.80;;;;;;5006855;28;20017;-71
2021/12/03 16:52:31;;;;;;;8.35;4.13;;;2.40;91.60;;;;;;5007421;28;20079;-71
2021/12/03 16:54:58;;;;;;;8.65;3.70;;;2.40;91.70;;;;;;5000696;28;20403;-71
2021/12/03 16:57:32;;;;;;;7.72;4.20;;;2.40;91.80;;;;;;5002100;28;20105;-72
2021/12/03 17:00:09;;;;;;;7.97;4.18;;;2.40;91.80;;;;;;5005440;28;20471;-71
2021/12/03 17:02:42;;;;;;;7.82;3.95;;;2.40;91.70;;;;;;5013405;28;20026;-71
2021/12/03 17:08:30;;;;;;;7.22;4.28;;;2.40;91.50;;;;;;4998543;28;20091;-72
2021/12/03 17:16:20;;;;;;;7.18;4.05;;;2.30;91.60;;;;;;4996567;28;20075;-72
2021/12/03 17:56:34;;;;;;;7.67;4.50;;;2.20;91.50;;;;;;5005058;28;20021;-71
2021/12/03 17:58:45;;;;;;;9.82;5.13;;;2.20;91.50;;;;;;5004774;28;20037;-71
2021/12/03 18:50:29;;;;;;;7.80;4.63;;;1.70;93.00;;;;;;4991006;28;20061;-72
2021/12/03 18:57:59;;;;;;;9.55;4.38;;;1.60;93.00;;;;;;5011771;28;20642;-73
2021/12/03 19:00:28;;;;;;;7.53;4.35;;;1.50;93.00;;;;;;5019947;28;20030;-73
2021/12/03 19:02:56;;;;;;;8.23;4.55;;;1.50;92.90;;;;;;5001634;28;20025;-73
2021/12/03 19:05:45;;;;;;;7.15;4.40;;;1.50;92.90;;;;;;5012295;28;20025;-73
2021/12/03 19:08:16;;;;;;;9.27;4.35;;;1.50;92.90;;;;;;5005559;28;20364;-74
2021/12/03 19:10:47;;;;;;;8.15;4.18;;;1.40;92.90;;;;;;5008618;28;20018;-73
2021/12/03 19:13:27;;;;;;;7.85;4.30;;;1.40;92.90;;;;;;5006274;28;20025;-72
2021/12/03 19:15:56;;;;;;;7.07;4.07;;;1.50;92.90;;;;;;5007219;28;20049;-73
2021/12/03 19:18:23;;;;;;;7.95;3.97;;;1.40;92.90;;;;;;5021016;28;20030;-73
2021/12/03 19:20:52;;;;;;;11.13;4.43;;;1.30;92.90;;;;;;5005247;28;20030;-73
2021/12/03 19:23:20;;;;;;;10.23;5.07;;;1.30;92.90;;;;;;5004926;28;20485;-73
2021/12/03 19:25:49;;;;;;;8.27;4.68;;;1.30;92.90;;;;;;5021228;28;20029;-73
2021/12/03 19:28:15;;;;;;;8.10;3.97;;;1.30;92.90;;;;;;5012711;28;20033;-73
2021/12/03 19:30:40;;;;;;;8.47;5.23;;;1.20;92.80;;;;;;5010105;28;20076;-73
2021/12/03 19:33:07;;;;;;;6.53;4.20;;;1.20;92.80;;;;;;5008017;28;20022;-73
2021/12/03 19:35:33;;;;;;;8.85;4.80;;;1.20;92.90;;;;;;5003583;28;20025;-73
2021/12/03 19:38:05;;;;;;;6.55;4.05;;;1.20;92.90;;;;;;5012131;28;20475;-73
2021/12/03 19:40:36;;;;;;;7.20;4.28;;;1.20;93.00;;;;;;5019588;28;20025;-73
2021/12/03 19:43:09;;;;;;;9.13;4.70;;;1.10;93.20;;;;;;5022856;28;20029;-73
2021/12/03 19:45:45;;;;;;;7.50;4.25;;;1.10;93.30;;;;;;5014140;28;20025;-73
2021/12/03 19:48:16;;;;;;;9.85;5.22;;;1.00;93.40;;;;;;5003341;28;20014;-73
2021/12/03 19:50:46;;;;;;;9.07;4.63;;;1.00;93.50;;;;;;5008150;28;20072;-73
2021/12/03 19:53:17;;;;;;;9.55;5.10;;;0.90;93.50;;;;;;5004583;28;20797;-73
2021/12/03 19:55:44;;;;;;;7.28;4.25;;;1.00;93.70;;;;;;5010351;28;20045;-73
2021/12/03 19:58:15;;;;;;;7.22;4.18;;;0.90;93.70;;;;;;5006324;28;20095;-73
2021/12/03 20:00:43;;;;;;;7.53;4.88;;;0.90;93.70;;;;;;5007983;28;20025;-73
2021/12/03 20:03:09;;;;;;;7.35;4.15;;;0.90;93.70;;;;;;5014438;28;20032;-73
2021/12/03 20:05:37;;;;;;;8.63;4.63;;;0.90;93.70;;;;;;5002645;28;20025;-73
2021/12/03 20:08:04;;;;;;;6.85;4.10;;;0.90;93.70;;;;;;5012459;28;20121;-73
2021/12/03 20:10:35;;;;;;;9.45;4.80;;;0.90;93.60;;;;;;5004282;28;20033;-73
2021/12/03 20:13:06;;;;;;;9.63;5.40;;;0.80;93.80;;;;;;5007446;28;20016;-74
2021/12/03 20:15:41;;;;;;;11.35;5.85;;;0.80;94.10;;;;;;5004517;28;20022;-73
2021/12/03 20:18:51;;;;;;;11.18;5.60;;;0.80;94.20;;;;;;5022664;28;20110;-73
2021/12/03 20:20:59;;;;;;;9.43;5.95;;;0.80;94.20;;;;;;5003219;28;20669;-73
2021/12/03 20:29:00;;;;;;;9.15;5.15;;;0.90;93.60;;;;;;5006757;28;20769;-73
2021/12/03 20:31:29;;;;;;;8.88;5.78;;;1.00;93.30;;;;;;5001343;28;20068;-73
2021/12/03 20:34:32;;;;;;;11.00;6.60;;;0.90;93.00;;;;;;5021507;28;20026;-73
2021/12/03 20:36:52;;;;;;;11.52;5.75;;;1.00;92.80;;;;;;5010500;28;20034;-73
2021/12/03 20:39:26;;;;;;;10.68;5.95;;;1.00;92.50;;;;;;5018805;28;20075;-73
2021/12/03 20:46:55;;;;;;;9.10;5.60;;;1.10;92.10;;;;;;5012820;28;20060;-73